Hovedside
METAR-TAF:

METAR-TAF

Lufthavner :

Madrid-Cuatro Vientos, Spania

breddegrad: 40-23N, lengdegrad: 003-47W, høyde over havet: 690 m

Gjeldene værobservasjon

Denne rapporten ble laget for 18 minutter siden, klokken 11:00 UTC
Vind 1 kt fra skiftende retning
Temperatur 11°C
Luftfuktighet 66%
Trykk 1025 hPa
Sikt 10 km eller mer
ingen skyer under 1500 m og ingen bygeskyer

METAR: LEVS 071100Z VRB01KT CAVOK 11/05 Q1025

Tid: 12:18 (11:18 UTC)

Varsel

Denne rapporten ble laget for 3 timer og 18 minutter siden, klokken 08:00 UTC
Varsel gyldig fra 07. klokken 09 UTC til 07. klokken 18 UTC
Vind 4 kt fra skiftende retning
Sikt 10 km eller mer
Få skyer i en høyde av 4500 ft

TAF: LEVS 070800Z 0709/0718 VRB04KT 9999 FEW045

Værobservasjoner og værvarsel for over 4000 flyplasser (METAR- og TAF-rapporter).

Tilgjengelige stasjoner er representert av de røde og gule prikkene på kartet.

Hold musepekeren over prikken for å se navnet på stasjonen.

Klikk så for å se værobservasjoner og -varsler.

For å forandre kartet kan du klikke på den grønne knappen med svart kryss for å zoome inn, på den grønne knappen med strek for å zoome ut, eller på de grønne pilene for å se tilstøtende kart.


METAR-TAF: